sensor_id;sensor_type;location;lat;lon;timestamp;P1;durP1;ratioP1;P2;durP2;ratioP2
27642;SDS011;15053;48.618;10.024;2022-08-19T00:01:27;23.77;;;20.48;;
27642;SDS011;15053;48.618;10.024;2022-08-19T00:03:57;27.92;;;22.95;;
27642;SDS011;15053;48.618;10.024;2022-08-19T00:06:26;26.90;;;21.52;;
27642;SDS011;15053;48.618;10.024;2022-08-19T00:08:55;31.63;;;23.77;;
27642;SDS011;15053;48.618;10.024;2022-08-19T00:11:22;31.40;;;25.17;;
27642;SDS011;15053;48.618;10.024;2022-08-19T00:13:51;30.48;;;23.67;;
27642;SDS011;15053;48.618;10.024;2022-08-19T00:16:17;30.23;;;24.40;;
27642;SDS011;15053;48.618;10.024;2022-08-19T00:18:51;32.75;;;25.60;;
27642;SDS011;15053;48.618;10.024;2022-08-19T00:21:18;36.50;;;25.13;;
27642;SDS011;15053;48.618;10.024;2022-08-19T00:23:44;33.42;;;26.40;;
27642;SDS011;15053;48.618;10.024;2022-08-19T00:26:11;34.03;;;27.05;;
27642;SDS011;15053;48.618;10.024;2022-08-19T00:28:38;35.55;;;27.38;;
27642;SDS011;15053;48.618;10.024;2022-08-19T00:31:05;35.38;;;28.38;;
27642;SDS011;15053;48.618;10.024;2022-08-19T00:33:34;39.00;;;29.83;;
27642;SDS011;15053;48.618;10.024;2022-08-19T00:36:02;36.15;;;28.80;;
27642;SDS011;15053;48.618;10.024;2022-08-19T00:38:32;35.72;;;29.30;;
27642;SDS011;15053;48.618;10.024;2022-08-19T00:41:04;37.38;;;29.42;;
27642;SDS011;15053;48.618;10.024;2022-08-19T00:43:32;36.92;;;29.42;;
27642;SDS011;15053;48.618;10.024;2022-08-19T00:45:59;32.95;;;27.52;;
27642;SDS011;15053;48.618;10.024;2022-08-19T00:48:27;35.72;;;29.58;;
27642;SDS011;15053;48.618;10.024;2022-08-19T00:50:54;40.97;;;30.90;;
27642;SDS011;15053;48.618;10.024;2022-08-19T00:53:22;37.28;;;31.25;;
27642;SDS011;15053;48.618;10.024;2022-08-19T00:55:53;42.65;;;31.98;;
27642;SDS011;15053;48.618;10.024;2022-08-19T00:58:24;40.20;;;30.92;;
27642;SDS011;15053;48.618;10.024;2022-08-19T01:00:54;39.22;;;31.70;;
27642;SDS011;15053;48.618;10.024;2022-08-19T01:03:21;39.67;;;30.70;;
27642;SDS011;15053;48.618;10.024;2022-08-19T01:05:49;44.75;;;34.42;;
27642;SDS011;15053;48.618;10.024;2022-08-19T01:08:18;40.70;;;32.03;;
27642;SDS011;15053;48.618;10.024;2022-08-19T01:10:51;44.03;;;33.63;;
27642;SDS011;15053;48.618;10.024;2022-08-19T01:13:22;41.30;;;32.92;;
27642;SDS011;15053;48.618;10.024;2022-08-19T01:15:53;42.33;;;32.70;;
27642;SDS011;15053;48.618;10.024;2022-08-19T01:18:22;40.83;;;32.30;;
27642;SDS011;15053;48.618;10.024;2022-08-19T01:20:50;44.72;;;33.72;;
27642;SDS011;15053;48.618;10.024;2022-08-19T01:23:20;43.55;;;33.47;;
27642;SDS011;15053;48.618;10.024;2022-08-19T01:25:48;43.97;;;33.85;;
27642;SDS011;15053;48.618;10.024;2022-08-19T01:28:23;46.17;;;34.13;;
27642;SDS011;15053;48.618;10.024;2022-08-19T01:30:59;47.67;;;36.20;;
27642;SDS011;15053;48.618;10.024;2022-08-19T01:33:33;47.90;;;34.88;;
27642;SDS011;15053;48.618;10.024;2022-08-19T01:36:04;46.65;;;35.05;;
27642;SDS011;15053;48.618;10.024;2022-08-19T01:38:34;45.08;;;34.33;;
27642;SDS011;15053;48.618;10.024;2022-08-19T01:41:11;47.15;;;34.30;;
27642;SDS011;15053;48.618;10.024;2022-08-19T01:43:38;50.55;;;36.83;;
27642;SDS011;15053;48.618;10.024;2022-08-19T01:46:25;48.58;;;36.28;;
27642;SDS011;15053;48.618;10.024;2022-08-19T01:48:52;49.78;;;36.70;;
27642;SDS011;15053;48.618;10.024;2022-08-19T01:51:18;49.95;;;35.42;;
27642;SDS011;15053;48.618;10.024;2022-08-19T01:53:48;48.55;;;35.30;;
27642;SDS011;15053;48.618;10.024;2022-08-19T01:56:17;45.88;;;35.03;;
27642;SDS011;15053;48.618;10.024;2022-08-19T01:58:47;49.28;;;35.30;;
27642;SDS011;15053;48.618;10.024;2022-08-19T02:01:21;50.05;;;36.60;;
27642;SDS011;15053;48.618;10.024;2022-08-19T02:03:52;45.15;;;33.20;;
27642;SDS011;15053;48.618;10.024;2022-08-19T02:06:22;50.28;;;35.15;;
27642;SDS011;15053;48.618;10.024;2022-08-19T02:08:52;48.47;;;34.95;;
27642;SDS011;15053;48.618;10.024;2022-08-19T02:11:27;49.83;;;35.95;;
27642;SDS011;15053;48.618;10.024;2022-08-19T02:13:58;54.45;;;37.60;;
27642;SDS011;15053;48.618;10.024;2022-08-19T02:16:26;50.08;;;34.80;;
27642;SDS011;15053;48.618;10.024;2022-08-19T02:18:52;51.15;;;37.22;;
27642;SDS011;15053;48.618;10.024;2022-08-19T02:21:20;50.95;;;36.30;;
27642;SDS011;15053;48.618;10.024;2022-08-19T02:23:48;54.15;;;37.45;;
27642;SDS011;15053;48.618;10.024;2022-08-19T02:26:16;53.63;;;38.20;;
27642;SDS011;15053;48.618;10.024;2022-08-19T02:28:43;53.97;;;39.85;;
27642;SDS011;15053;48.618;10.024;2022-08-19T02:31:14;51.92;;;37.33;;
27642;SDS011;15053;48.618;10.024;2022-08-19T02:33:43;53.83;;;38.60;;
27642;SDS011;15053;48.618;10.024;2022-08-19T02:36:12;54.20;;;38.75;;
27642;SDS011;15053;48.618;10.024;2022-08-19T02:38:41;53.85;;;37.25;;
27642;SDS011;15053;48.618;10.024;2022-08-19T02:41:14;52.67;;;38.28;;
27642;SDS011;15053;48.618;10.024;2022-08-19T02:43:44;57.00;;;38.83;;
27642;SDS011;15053;48.618;10.024;2022-08-19T02:46:31;56.53;;;38.33;;
27642;SDS011;15053;48.618;10.024;2022-08-19T02:49:01;51.90;;;37.90;;
27642;SDS011;15053;48.618;10.024;2022-08-19T02:51:32;54.78;;;37.95;;
27642;SDS011;15053;48.618;10.024;2022-08-19T02:54:05;55.58;;;38.90;;
27642;SDS011;15053;48.618;10.024;2022-08-19T02:56:34;54.30;;;36.70;;
27642;SDS011;15053;48.618;10.024;2022-08-19T02:59:01;50.05;;;36.60;;
27642;SDS011;15053;48.618;10.024;2022-08-19T03:01:30;50.92;;;36.42;;
27642;SDS011;15053;48.618;10.024;2022-08-19T03:03:58;51.38;;;35.90;;
27642;SDS011;15053;48.618;10.024;2022-08-19T03:06:28;48.40;;;35.60;;
27642;SDS011;15053;48.618;10.024;2022-08-19T03:08:55;49.20;;;34.80;;
27642;SDS011;15053;48.618;10.024;2022-08-19T03:11:24;51.83;;;35.40;;
27642;SDS011;15053;48.618;10.024;2022-08-19T03:13:53;51.17;;;35.37;;
27642;SDS011;15053;48.618;10.024;2022-08-19T03:16:22;54.33;;;37.58;;
27642;SDS011;15053;48.618;10.024;2022-08-19T03:18:50;52.60;;;37.65;;
27642;SDS011;15053;48.618;10.024;2022-08-19T03:21:18;51.90;;;36.63;;
27642;SDS011;15053;48.618;10.024;2022-08-19T03:23:50;46.75;;;34.25;;
27642;SDS011;15053;48.618;10.024;2022-08-19T03:26:20;51.42;;;36.08;;
27642;SDS011;15053;48.618;10.024;2022-08-19T03:28:46;51.58;;;36.10;;
27642;SDS011;15053;48.618;10.024;2022-08-19T03:31:23;48.05;;;34.70;;
27642;SDS011;15053;48.618;10.024;2022-08-19T03:34:12;52.00;;;34.40;;
27642;SDS011;15053;48.618;10.024;2022-08-19T03:36:40;49.63;;;36.60;;
27642;SDS011;15053;48.618;10.024;2022-08-19T03:39:07;47.47;;;33.30;;
27642;SDS011;15053;48.618;10.024;2022-08-19T03:41:38;51.60;;;36.05;;
27642;SDS011;15053;48.618;10.024;2022-08-19T03:44:14;51.92;;;35.47;;
27642;SDS011;15053;48.618;10.024;2022-08-19T03:46:47;51.85;;;36.05;;
27642;SDS011;15053;48.618;10.024;2022-08-19T03:49:16;47.80;;;34.53;;
27642;SDS011;15053;48.618;10.024;2022-08-19T03:51:45;53.60;;;36.58;;
27642;SDS011;15053;48.618;10.024;2022-08-19T03:54:15;51.75;;;36.10;;
27642;SDS011;15053;48.618;10.024;2022-08-19T03:56:45;55.42;;;37.13;;
27642;SDS011;15053;48.618;10.024;2022-08-19T03:59:16;51.65;;;35.60;;
27642;SDS011;15053;48.618;10.024;2022-08-19T04:01:47;52.17;;;36.22;;
27642;SDS011;15053;48.618;10.024;2022-08-19T04:04:14;52.38;;;35.13;;
27642;SDS011;15053;48.618;10.024;2022-08-19T04:06:40;51.70;;;35.45;;
27642;SDS011;15053;48.618;10.024;2022-08-19T04:09:09;54.67;;;35.80;;
27642;SDS011;15053;48.618;10.024;2022-08-19T04:11:38;57.95;;;39.08;;
27642;SDS011;15053;48.618;10.024;2022-08-19T04:14:14;50.08;;;36.25;;
27642;SDS011;15053;48.618;10.024;2022-08-19T04:16:46;53.92;;;36.45;;
27642;SDS011;15053;48.618;10.024;2022-08-19T04:19:13;57.95;;;39.63;;
27642;SDS011;15053;48.618;10.024;2022-08-19T04:21:42;55.55;;;36.53;;
27642;SDS011;15053;48.618;10.024;2022-08-19T04:24:10;56.08;;;37.67;;
27642;SDS011;15053;48.618;10.024;2022-08-19T04:26:38;56.10;;;36.53;;
27642;SDS011;15053;48.618;10.024;2022-08-19T04:29:06;62.97;;;39.05;;
27642;SDS011;15053;48.618;10.024;2022-08-19T04:31:38;58.40;;;38.22;;
27642;SDS011;15053;48.618;10.024;2022-08-19T04:34:06;65.60;;;40.15;;
27642;SDS011;15053;48.618;10.024;2022-08-19T04:36:35;58.13;;;39.33;;
27642;SDS011;15053;48.618;10.024;2022-08-19T04:39:04;64.60;;;40.45;;
27642;SDS011;15053;48.618;10.024;2022-08-19T04:41:41;55.95;;;39.20;;
27642;SDS011;15053;48.618;10.024;2022-08-19T04:44:27;60.88;;;40.15;;
27642;SDS011;15053;48.618;10.024;2022-08-19T04:46:58;58.92;;;39.05;;
27642;SDS011;15053;48.618;10.024;2022-08-19T04:49:27;60.80;;;40.72;;
27642;SDS011;15053;48.618;10.024;2022-08-19T04:51:53;64.53;;;41.47;;
27642;SDS011;15053;48.618;10.024;2022-08-19T04:54:21;60.58;;;41.08;;
27642;SDS011;15053;48.618;10.024;2022-08-19T04:57:05;65.97;;;41.75;;
27642;SDS011;15053;48.618;10.024;2022-08-19T04:59:37;65.60;;;40.38;;
27642;SDS011;15053;48.618;10.024;2022-08-19T05:02:05;64.88;;;41.88;;
27642;SDS011;15053;48.618;10.024;2022-08-19T05:04:34;62.35;;;40.42;;
27642;SDS011;15053;48.618;10.024;2022-08-19T05:07:05;61.13;;;40.30;;
27642;SDS011;15053;48.618;10.024;2022-08-19T05:09:36;63.17;;;41.90;;
27642;SDS011;15053;48.618;10.024;2022-08-19T05:12:23;67.07;;;40.97;;
27642;SDS011;15053;48.618;10.024;2022-08-19T05:14:54;64.88;;;42.13;;
27642;SDS011;15053;48.618;10.024;2022-08-19T05:17:23;63.70;;;41.10;;
27642;SDS011;15053;48.618;10.024;2022-08-19T05:19:58;60.40;;;39.55;;
27642;SDS011;15053;48.618;10.024;2022-08-19T05:22:44;60.97;;;40.25;;
27642;SDS011;15053;48.618;10.024;2022-08-19T05:25:15;57.88;;;40.03;;
27642;SDS011;15053;48.618;10.024;2022-08-19T05:27:45;56.50;;;38.58;;
27642;SDS011;15053;48.618;10.024;2022-08-19T05:30:13;64.10;;;39.83;;
27642;SDS011;15053;48.618;10.024;2022-08-19T05:32:41;58.60;;;40.22;;
27642;SDS011;15053;48.618;10.024;2022-08-19T05:35:08;60.30;;;39.90;;
27642;SDS011;15053;48.618;10.024;2022-08-19T05:37:36;55.63;;;38.35;;
27642;SDS011;15053;48.618;10.024;2022-08-19T05:40:03;60.75;;;40.33;;
27642;SDS011;15053;48.618;10.024;2022-08-19T05:42:30;58.92;;;39.30;;
27642;SDS011;15053;48.618;10.024;2022-08-19T05:44:58;58.75;;;39.05;;
27642;SDS011;15053;48.618;10.024;2022-08-19T05:47:24;59.97;;;40.03;;
27642;SDS011;15053;48.618;10.024;2022-08-19T05:49:51;59.67;;;38.50;;
27642;SDS011;15053;48.618;10.024;2022-08-19T05:52:18;55.00;;;37.75;;
27642;SDS011;15053;48.618;10.024;2022-08-19T05:54:52;59.80;;;37.60;;
27642;SDS011;15053;48.618;10.024;2022-08-19T05:57:21;54.83;;;36.47;;
27642;SDS011;15053;48.618;10.024;2022-08-19T05:59:48;57.58;;;37.42;;
27642;SDS011;15053;48.618;10.024;2022-08-19T06:02:26;56.80;;;36.63;;
27642;SDS011;15053;48.618;10.024;2022-08-19T06:04:54;55.35;;;37.58;;
27642;SDS011;15053;48.618;10.024;2022-08-19T06:07:21;53.65;;;36.08;;
27642;SDS011;15053;48.618;10.024;2022-08-19T06:09:48;52.25;;;35.85;;
27642;SDS011;15053;48.618;10.024;2022-08-19T06:12:27;55.40;;;36.53;;
27642;SDS011;15053;48.618;10.024;2022-08-19T06:14:58;50.65;;;34.75;;
27642;SDS011;15053;48.618;10.024;2022-08-19T06:17:27;52.67;;;35.30;;
27642;SDS011;15053;48.618;10.024;2022-08-19T06:19:57;55.88;;;36.20;;
27642;SDS011;15053;48.618;10.024;2022-08-19T06:22:24;59.20;;;35.95;;
27642;SDS011;15053;48.618;10.024;2022-08-19T06:24:51;57.28;;;38.08;;
27642;SDS011;15053;48.618;10.024;2022-08-19T06:27:20;55.97;;;37.50;;
27642;SDS011;15053;48.618;10.024;2022-08-19T06:29:47;62.95;;;37.47;;
27642;SDS011;15053;48.618;10.024;2022-08-19T06:32:15;57.58;;;36.95;;
27642;SDS011;15053;48.618;10.024;2022-08-19T06:34:44;59.20;;;36.95;;
27642;SDS011;15053;48.618;10.024;2022-08-19T06:37:11;66.60;;;35.97;;
27642;SDS011;15053;48.618;10.024;2022-08-19T06:39:39;62.83;;;39.38;;
27642;SDS011;15053;48.618;10.024;2022-08-19T06:42:07;60.30;;;36.42;;
27642;SDS011;15053;48.618;10.024;2022-08-19T06:44:38;54.90;;;36.40;;
27642;SDS011;15053;48.618;10.024;2022-08-19T06:47:09;58.42;;;36.47;;
27642;SDS011;15053;48.618;10.024;2022-08-19T06:49:57;55.47;;;36.15;;
27642;SDS011;15053;48.618;10.024;2022-08-19T06:52:31;58.58;;;37.53;;
27642;SDS011;15053;48.618;10.024;2022-08-19T06:55:00;57.15;;;36.85;;
27642;SDS011;15053;48.618;10.024;2022-08-19T06:57:32;55.03;;;36.95;;
27642;SDS011;15053;48.618;10.024;2022-08-19T07:00:00;62.25;;;37.83;;
27642;SDS011;15053;48.618;10.024;2022-08-19T07:02:27;55.90;;;37.50;;
27642;SDS011;15053;48.618;10.024;2022-08-19T07:04:54;58.53;;;36.38;;
27642;SDS011;15053;48.618;10.024;2022-08-19T07:07:24;57.83;;;36.07;;
27642;SDS011;15053;48.618;10.024;2022-08-19T07:09:51;56.15;;;36.88;;
27642;SDS011;15053;48.618;10.024;2022-08-19T07:12:29;55.35;;;36.70;;
27642;SDS011;15053;48.618;10.024;2022-08-19T07:15:01;58.28;;;35.90;;
27642;SDS011;15053;48.618;10.024;2022-08-19T07:17:29;60.97;;;39.40;;
27642;SDS011;15053;48.618;10.024;2022-08-19T07:19:59;63.05;;;36.60;;
27642;SDS011;15053;48.618;10.024;2022-08-19T07:22:34;54.85;;;36.60;;
27642;SDS011;15053;48.618;10.024;2022-08-19T07:25:01;56.38;;;37.28;;
27642;SDS011;15053;48.618;10.024;2022-08-19T07:27:30;58.08;;;36.55;;
27642;SDS011;15053;48.618;10.024;2022-08-19T07:29:59;55.75;;;35.15;;
27642;SDS011;15053;48.618;10.024;2022-08-19T07:32:26;59.03;;;36.90;;
27642;SDS011;15053;48.618;10.024;2022-08-19T07:34:53;53.45;;;34.67;;
27642;SDS011;15053;48.618;10.024;2022-08-19T07:37:22;61.17;;;35.80;;
27642;SDS011;15053;48.618;10.024;2022-08-19T07:39:49;53.83;;;35.10;;
27642;SDS011;15053;48.618;10.024;2022-08-19T07:42:16;56.10;;;34.88;;
27642;SDS011;15053;48.618;10.024;2022-08-19T07:44:44;54.65;;;35.72;;
27642;SDS011;15053;48.618;10.024;2022-08-19T07:47:16;55.22;;;35.22;;
27642;SDS011;15053;48.618;10.024;2022-08-19T07:50:05;53.45;;;35.20;;
27642;SDS011;15053;48.618;10.024;2022-08-19T07:52:35;51.45;;;34.38;;
27642;SDS011;15053;48.618;10.024;2022-08-19T07:55:05;54.28;;;35.83;;
27642;SDS011;15053;48.618;10.024;2022-08-19T07:57:55;62.10;;;37.33;;
27642;SDS011;15053;48.618;10.024;2022-08-19T08:00:21;58.20;;;36.47;;
27642;SDS011;15053;48.618;10.024;2022-08-19T08:02:50;54.35;;;35.85;;
27642;SDS011;15053;48.618;10.024;2022-08-19T08:05:21;57.97;;;36.08;;
27642;SDS011;15053;48.618;10.024;2022-08-19T08:08:10;53.15;;;35.40;;
27642;SDS011;15053;48.618;10.024;2022-08-19T08:10:55;54.35;;;35.40;;
27642;SDS011;15053;48.618;10.024;2022-08-19T08:13:23;55.92;;;36.13;;
27642;SDS011;15053;48.618;10.024;2022-08-19T08:15:51;54.80;;;36.17;;
27642;SDS011;15053;48.618;10.024;2022-08-19T08:18:22;59.90;;;38.30;;
27642;SDS011;15053;48.618;10.024;2022-08-19T08:20:53;57.58;;;37.47;;
27642;SDS011;15053;48.618;10.024;2022-08-19T08:23:21;51.55;;;34.97;;
27642;SDS011;15053;48.618;10.024;2022-08-19T08:25:50;59.60;;;35.95;;
27642;SDS011;15053;48.618;10.024;2022-08-19T08:28:18;50.88;;;34.25;;
27642;SDS011;15053;48.618;10.024;2022-08-19T08:30:46;53.90;;;34.50;;
27642;SDS011;15053;48.618;10.024;2022-08-19T08:33:20;54.00;;;34.25;;
27642;SDS011;15053;48.618;10.024;2022-08-19T08:35:59;53.15;;;34.42;;
27642;SDS011;15053;48.618;10.024;2022-08-19T08:38:29;60.92;;;35.95;;
27642;SDS011;15053;48.618;10.024;2022-08-19T08:41:27;49.83;;;35.33;;
27642;SDS011;15053;48.618;10.024;2022-08-19T08:44:01;56.13;;;34.70;;
27642;SDS011;15053;48.618;10.024;2022-08-19T08:51:42;57.22;;;35.25;;
27642;SDS011;15053;48.618;10.024;2022-08-19T08:54:24;57.30;;;35.83;;
27642;SDS011;15053;48.618;10.024;2022-08-19T08:57:13;51.22;;;34.05;;
27642;SDS011;15053;48.618;10.024;2022-08-19T08:59:44;54.40;;;35.50;;
27642;SDS011;15053;48.618;10.024;2022-08-19T09:02:17;55.95;;;36.47;;
27642;SDS011;15053;48.618;10.024;2022-08-19T09:04:44;58.85;;;37.10;;
27642;SDS011;15053;48.618;10.024;2022-08-19T09:15:40;61.50;;;38.63;;
27642;SDS011;15053;48.618;10.024;2022-08-19T09:18:13;63.58;;;41.15;;
27642;SDS011;15053;48.618;10.024;2022-08-19T09:20:45;67.22;;;40.33;;
27642;SDS011;15053;48.618;10.024;2022-08-19T09:23:13;65.63;;;39.15;;
27642;SDS011;15053;48.618;10.024;2022-08-19T09:25:41;68.53;;;42.45;;
27642;SDS011;15053;48.618;10.024;2022-08-19T09:28:08;57.72;;;38.50;;
27642;SDS011;15053;48.618;10.024;2022-08-19T09:30:48;58.63;;;37.90;;
27642;SDS011;15053;48.618;10.024;2022-08-19T09:33:14;57.30;;;37.15;;
27642;SDS011;15053;48.618;10.024;2022-08-19T09:35:42;59.05;;;38.67;;
27642;SDS011;15053;48.618;10.024;2022-08-19T09:38:19;62.83;;;38.40;;
27642;SDS011;15053;48.618;10.024;2022-08-19T09:40:47;57.30;;;37.45;;
27642;SDS011;15053;48.618;10.024;2022-08-19T09:43:13;55.42;;;37.28;;
27642;SDS011;15053;48.618;10.024;2022-08-19T09:45:58;55.67;;;36.28;;
27642;SDS011;15053;48.618;10.024;2022-08-19T09:48:26;52.17;;;35.88;;
27642;SDS011;15053;48.618;10.024;2022-08-19T09:50:53;60.33;;;37.47;;
27642;SDS011;15053;48.618;10.024;2022-08-19T09:53:20;63.00;;;37.38;;
27642;SDS011;15053;48.618;10.024;2022-08-19T09:55:50;59.00;;;36.63;;
27642;SDS011;15053;48.618;10.024;2022-08-19T09:58:17;56.33;;;35.67;;
27642;SDS011;15053;48.618;10.024;2022-08-19T10:00:49;52.63;;;35.85;;
27642;SDS011;15053;48.618;10.024;2022-08-19T10:03:16;58.17;;;36.95;;
27642;SDS011;15053;48.618;10.024;2022-08-19T10:05:43;54.53;;;35.15;;
27642;SDS011;15053;48.618;10.024;2022-08-19T10:08:22;57.28;;;36.08;;
27642;SDS011;15053;48.618;10.024;2022-08-19T10:10:52;58.15;;;37.33;;
27642;SDS011;15053;48.618;10.024;2022-08-19T10:13:23;61.30;;;39.17;;
27642;SDS011;15053;48.618;10.024;2022-08-19T10:18:21;59.88;;;37.90;;
27642;SDS011;15053;48.618;10.024;2022-08-19T10:20:50;62.28;;;38.97;;
27642;SDS011;15053;48.618;10.024;2022-08-19T10:23:19;70.68;;;40.55;;
27642;SDS011;15053;48.618;10.024;2022-08-19T10:25:47;71.38;;;42.80;;
27642;SDS011;15053;48.618;10.024;2022-08-19T10:28:15;62.60;;;41.78;;
27642;SDS011;15053;48.618;10.024;2022-08-19T10:30:45;71.22;;;43.42;;
27642;SDS011;15053;48.618;10.024;2022-08-19T10:33:12;65.88;;;42.63;;
27642;SDS011;15053;48.618;10.024;2022-08-19T10:35:40;72.20;;;43.22;;
27642;SDS011;15053;48.618;10.024;2022-08-19T10:38:21;68.18;;;43.17;;
27642;SDS011;15053;48.618;10.024;2022-08-19T10:40:57;68.55;;;42.55;;
27642;SDS011;15053;48.618;10.024;2022-08-19T10:43:24;71.03;;;41.72;;
27642;SDS011;15053;48.618;10.024;2022-08-19T10:45:52;64.00;;;40.35;;
27642;SDS011;15053;48.618;10.024;2022-08-19T10:48:24;70.50;;;43.60;;
27642;SDS011;15053;48.618;10.024;2022-08-19T10:50:52;72.18;;;43.28;;
27642;SDS011;15053;48.618;10.024;2022-08-19T10:53:48;68.57;;;43.72;;
27642;SDS011;15053;48.618;10.024;2022-08-19T10:56:16;70.25;;;43.95;;
27642;SDS011;15053;48.618;10.024;2022-08-19T10:59:03;69.32;;;44.25;;
27642;SDS011;15053;48.618;10.024;2022-08-19T11:01:30;71.88;;;43.72;;
27642;SDS011;15053;48.618;10.024;2022-08-19T11:04:00;71.55;;;42.38;;
27642;SDS011;15053;48.618;10.024;2022-08-19T11:06:28;70.50;;;44.05;;
27642;SDS011;15053;48.618;10.024;2022-08-19T11:08:57;70.35;;;44.03;;
27642;SDS011;15053;48.618;10.024;2022-08-19T11:11:24;75.03;;;45.03;;
27642;SDS011;15053;48.618;10.024;2022-08-19T11:13:50;72.78;;;45.17;;
27642;SDS011;15053;48.618;10.024;2022-08-19T11:16:19;72.72;;;43.05;;
27642;SDS011;15053;48.618;10.024;2022-08-19T11:18:49;64.90;;;43.05;;
27642;SDS011;15053;48.618;10.024;2022-08-19T11:21:21;64.97;;;42.35;;
27642;SDS011;15053;48.618;10.024;2022-08-19T11:23:59;61.57;;;41.10;;
27642;SDS011;15053;48.618;10.024;2022-08-19T11:26:28;62.88;;;41.03;;
27642;SDS011;15053;48.618;10.024;2022-08-19T11:28:56;60.75;;;39.60;;
27642;SDS011;15053;48.618;10.024;2022-08-19T11:31:25;57.28;;;38.85;;
27642;SDS011;15053;48.618;10.024;2022-08-19T11:33:58;57.40;;;38.63;;
27642;SDS011;15053;48.618;10.024;2022-08-19T11:36:27;49.25;;;35.30;;
27642;SDS011;15053;48.618;10.024;2022-08-19T11:38:55;53.92;;;37.08;;
27642;SDS011;15053;48.618;10.024;2022-08-19T11:41:22;47.88;;;32.13;;
27642;SDS011;15053;48.618;10.024;2022-08-19T11:43:50;41.03;;;30.10;;
27642;SDS011;15053;48.618;10.024;2022-08-19T11:46:20;45.13;;;28.67;;
27642;SDS011;15053;48.618;10.024;2022-08-19T11:48:48;37.55;;;27.80;;
27642;SDS011;15053;48.618;10.024;2022-08-19T11:51:18;35.70;;;26.45;;
27642;SDS011;15053;48.618;10.024;2022-08-19T11:53:48;34.03;;;25.08;;
27642;SDS011;15053;48.618;10.024;2022-08-19T11:56:17;30.20;;;21.63;;
27642;SDS011;15053;48.618;10.024;2022-08-19T11:58:45;27.30;;;20.88;;
27642;SDS011;15053;48.618;10.024;2022-08-19T12:01:13;25.00;;;19.58;;
27642;SDS011;15053;48.618;10.024;2022-08-19T12:03:43;26.65;;;19.73;;
27642;SDS011;15053;48.618;10.024;2022-08-19T12:06:15;26.67;;;19.00;;
27642;SDS011;15053;48.618;10.024;2022-08-19T12:08:44;28.03;;;20.47;;
27642;SDS011;15053;48.618;10.024;2022-08-19T12:11:13;28.95;;;21.48;;
27642;SDS011;15053;48.618;10.024;2022-08-19T12:13:40;27.27;;;20.63;;
27642;SDS011;15053;48.618;10.024;2022-08-19T12:16:15;27.00;;;20.30;;
27642;SDS011;15053;48.618;10.024;2022-08-19T12:18:46;26.65;;;19.13;;
27642;SDS011;15053;48.618;10.024;2022-08-19T12:21:14;29.13;;;20.92;;
27642;SDS011;15053;48.618;10.024;2022-08-19T12:23:42;28.50;;;20.83;;
27642;SDS011;15053;48.618;10.024;2022-08-19T12:26:11;27.75;;;19.00;;
27642;SDS011;15053;48.618;10.024;2022-08-19T12:28:38;26.63;;;19.67;;
27642;SDS011;15053;48.618;10.024;2022-08-19T12:31:05;22.08;;;17.60;;
27642;SDS011;15053;48.618;10.024;2022-08-19T12:33:32;21.98;;;17.20;;
27642;SDS011;15053;48.618;10.024;2022-08-19T12:36:00;22.80;;;17.02;;
27642;SDS011;15053;48.618;10.024;2022-08-19T12:38:30;20.83;;;16.35;;
27642;SDS011;15053;48.618;10.024;2022-08-19T12:40:58;19.33;;;15.82;;
27642;SDS011;15053;48.618;10.024;2022-08-19T12:43:26;19.23;;;15.23;;
27642;SDS011;15053;48.618;10.024;2022-08-19T12:45:53;18.00;;;14.38;;
27642;SDS011;15053;48.618;10.024;2022-08-19T12:48:21;16.52;;;13.75;;
27642;SDS011;15053;48.618;10.024;2022-08-19T12:51:00;17.33;;;13.13;;
27642;SDS011;15053;48.618;10.024;2022-08-19T12:53:33;18.10;;;14.73;;
27642;SDS011;15053;48.618;10.024;2022-08-19T12:56:04;14.52;;;11.70;;
27642;SDS011;15053;48.618;10.024;2022-08-19T12:58:37;13.85;;;11.30;;
27642;SDS011;15053;48.618;10.024;2022-08-19T13:01:13;13.43;;;11.07;;
27642;SDS011;15053;48.618;10.024;2022-08-19T13:03:44;11.07;;;8.38;;
27642;SDS011;15053;48.618;10.024;2022-08-19T13:06:11;9.20;;;7.05;;
27642;SDS011;15053;48.618;10.024;2022-08-19T13:11:13;8.55;;;5.93;;
27642;SDS011;15053;48.618;10.024;2022-08-19T13:13:44;7.75;;;6.70;;
27642;SDS011;15053;48.618;10.024;2022-08-19T13:16:14;8.52;;;6.10;;
27642;SDS011;15053;48.618;10.024;2022-08-19T13:18:42;10.07;;;5.72;;
27642;SDS011;15053;48.618;10.024;2022-08-19T13:21:11;6.55;;;5.35;;
27642;SDS011;15053;48.618;10.024;2022-08-19T13:23:39;8.43;;;5.70;;
27642;SDS011;15053;48.618;10.024;2022-08-19T13:26:07;8.20;;;5.85;;
27642;SDS011;15053;48.618;10.024;2022-08-19T13:28:35;7.22;;;6.28;;
27642;SDS011;15053;48.618;10.024;2022-08-19T13:31:34;8.32;;;7.43;;
27642;SDS011;15053;48.618;10.024;2022-08-19T13:34:28;10.75;;;8.95;;
27642;SDS011;15053;48.618;10.024;2022-08-19T13:37:00;13.68;;;9.60;;
27642;SDS011;15053;48.618;10.024;2022-08-19T13:39:30;10.68;;;9.52;;
27642;SDS011;15053;48.618;10.024;2022-08-19T13:41:59;11.38;;;9.85;;
27642;SDS011;15053;48.618;10.024;2022-08-19T13:44:26;11.88;;;9.93;;
27642;SDS011;15053;48.618;10.024;2022-08-19T13:47:02;13.00;;;10.20;;
27642;SDS011;15053;48.618;10.024;2022-08-19T13:49:34;12.52;;;10.38;;
27642;SDS011;15053;48.618;10.024;2022-08-19T13:52:03;13.50;;;10.95;;
27642;SDS011;15053;48.618;10.024;2022-08-19T13:54:31;15.32;;;11.65;;
27642;SDS011;15053;48.618;10.024;2022-08-19T13:56:57;17.67;;;13.40;;
27642;SDS011;15053;48.618;10.024;2022-08-19T13:59:24;19.10;;;13.90;;
27642;SDS011;15053;48.618;10.024;2022-08-19T14:01:51;15.95;;;14.00;;
27642;SDS011;15053;48.618;10.024;2022-08-19T14:04:18;17.52;;;14.70;;
27642;SDS011;15053;48.618;10.024;2022-08-19T14:06:44;16.15;;;13.48;;
27642;SDS011;15053;48.618;10.024;2022-08-19T14:09:11;21.70;;;13.52;;
27642;SDS011;15053;48.618;10.024;2022-08-19T14:11:37;18.15;;;14.27;;
27642;SDS011;15053;48.618;10.024;2022-08-19T14:14:04;18.38;;;14.70;;
27642;SDS011;15053;48.618;10.024;2022-08-19T14:16:31;18.30;;;13.38;;
27642;SDS011;15053;48.618;10.024;2022-08-19T14:18:57;19.05;;;15.13;;
27642;SDS011;15053;48.618;10.024;2022-08-19T14:21:24;27.33;;;18.98;;
27642;SDS011;15053;48.618;10.024;2022-08-19T14:23:51;28.45;;;22.45;;
27642;SDS011;15053;48.618;10.024;2022-08-19T14:26:20;21.08;;;17.65;;
27642;SDS011;15053;48.618;10.024;2022-08-19T14:28:50;33.95;;;23.83;;
27642;SDS011;15053;48.618;10.024;2022-08-19T14:31:18;32.58;;;23.42;;
27642;SDS011;15053;48.618;10.024;2022-08-19T14:33:46;38.25;;;27.77;;
27642;SDS011;15053;48.618;10.024;2022-08-19T14:36:13;17.58;;;14.80;;
27642;SDS011;15053;48.618;10.024;2022-08-19T14:38:40;16.98;;;13.63;;
27642;SDS011;15053;48.618;10.024;2022-08-19T14:43:37;23.83;;;15.02;;
27642;SDS011;15053;48.618;10.024;2022-08-19T14:46:04;26.75;;;20.50;;
27642;SDS011;15053;48.618;10.024;2022-08-19T14:48:32;22.20;;;16.88;;